Time;durP1;ratioP1;P1;durP2;ratioP2;P2;SDS_P1;SDS_P2;PMS_P1;PMS_P2;Temp;Humidity;BMP_temperature;BMP_pressure;BME280_temperature;BME280_humidity;BME280_pressure;Samples;Min_cycle;Max_cycle;Signal;HPM_P1;HPM_P2
2022/01/09 00:00:20;;;;;;;7.60;6.22;;;4.30;99.90;;;;;;4936988;29;20032;-77
2022/01/09 00:02:48;;;;;;;12.25;7.75;;;4.30;99.90;;;;;;4937211;29;20023;-77
2022/01/09 00:05:14;;;;;;;39.83;24.73;;;4.30;99.90;;;;;;4936896;29;20040;-78
2022/01/09 00:07:44;;;;;;;20.42;17.90;;;4.40;99.90;;;;;;4936221;29;20032;-75
2022/01/09 00:10:10;;;;;;;10.50;8.23;;;4.30;99.90;;;;;;4936282;29;20027;-75
2022/01/09 00:12:37;;;;;;;2.90;2.65;;;4.30;99.90;;;;;;4930775;29;20039;-73
2022/01/09 00:15:04;;;;;;;6.97;6.28;;;4.30;99.90;;;;;;4937555;29;20043;-72
2022/01/09 00:17:31;;;;;;;1.80;1.27;;;4.30;99.90;;;;;;4936607;29;20031;-76
2022/01/09 00:19:58;;;;;;;2.72;1.45;;;4.20;99.90;;;;;;4936769;29;20102;-75
2022/01/09 00:22:38;;;;;;;4.75;3.45;;;4.30;99.90;;;;;;4936198;29;20491;-76
2022/01/09 00:25:05;;;;;;;3.53;2.03;;;4.30;99.90;;;;;;4926423;29;20501;-77
2022/01/09 00:27:32;;;;;;;9.02;3.10;;;4.30;99.90;;;;;;4918918;29;20028;-75
2022/01/09 00:29:58;;;;;;;12.90;11.27;;;4.30;99.90;;;;;;4925875;29;20047;-75
2022/01/09 00:32:24;;;;;;;19.83;17.38;;;4.30;99.90;;;;;;4928013;29;20036;-89
2022/01/09 00:34:50;;;;;;;13.05;11.80;;;4.30;99.90;;;;;;4921730;29;20117;-75
2022/01/09 00:37:17;;;;;;;4.13;2.80;;;4.30;99.90;;;;;;4917462;29;20032;-75
2022/01/09 00:39:43;;;;;;;11.50;8.77;;;4.30;99.90;;;;;;4917005;29;20043;-75
2022/01/09 00:42:09;;;;;;;7.32;5.45;;;4.30;99.90;;;;;;4917577;29;20024;-76
2022/01/09 00:44:35;;;;;;;3.55;3.25;;;4.30;99.90;;;;;;4917125;29;20035;-76
2022/01/09 00:47:01;;;;;;;4.18;3.78;;;4.20;99.90;;;;;;4917464;29;20044;-77
2022/01/09 00:49:28;;;;;;;2.05;1.77;;;4.30;99.90;;;;;;4917329;29;20390;-73
2022/01/09 00:51:54;;;;;;;1.98;1.67;;;4.20;99.90;;;;;;4931094;29;20044;-75
2022/01/09 00:54:22;;;;;;;7.32;6.75;;;4.20;99.90;;;;;;4936514;29;20046;-75
2022/01/09 00:56:48;;;;;;;2.88;2.17;;;4.20;99.90;;;;;;4935601;29;20381;-76
2022/01/09 00:59:14;;;;;;;2.72;2.47;;;4.30;99.90;;;;;;4936362;29;20031;-73
2022/01/09 01:01:40;;;;;;;2.60;1.85;;;4.30;99.90;;;;;;4936298;29;20109;-73
2022/01/09 01:04:07;;;;;;;2.25;1.63;;;4.20;99.90;;;;;;4936485;29;20373;-74
2022/01/09 01:06:33;;;;;;;2.45;2.00;;;4.30;99.90;;;;;;4935552;29;20035;-74
2022/01/09 01:08:59;;;;;;;2.08;1.67;;;4.30;99.90;;;;;;4936275;29;20047;-74
2022/01/09 01:11:25;;;;;;;3.95;1.95;;;4.30;99.90;;;;;;4935456;29;20038;-74
2022/01/09 01:13:52;;;;;;;2.58;1.73;;;4.30;99.90;;;;;;4935586;29;20054;-74
2022/01/09 01:16:18;;;;;;;3.67;2.80;;;4.30;99.90;;;;;;4935794;29;20417;-74
2022/01/09 01:18:45;;;;;;;2.95;1.63;;;4.30;99.90;;;;;;4935403;29;20036;-73
2022/01/09 01:21:12;;;;;;;2.67;1.50;;;4.30;99.90;;;;;;4936061;29;20039;-74
2022/01/09 01:23:38;;;;;;;8.38;2.33;;;4.30;99.90;;;;;;4935081;29;20032;-74
2022/01/09 01:26:04;;;;;;;2.85;1.77;;;4.30;99.90;;;;;;4935800;29;20362;-75
2022/01/09 01:28:33;;;;;;;3.45;2.15;;;4.30;99.90;;;;;;4918118;29;20028;-74
2022/01/09 01:30:59;;;;;;;2.70;1.75;;;4.30;99.90;;;;;;4935668;29;20027;-75
2022/01/09 01:33:26;;;;;;;4.63;4.18;;;4.40;99.90;;;;;;4935473;29;20032;-75
2022/01/09 01:35:52;;;;;;;4.45;1.88;;;4.40;99.90;;;;;;4935279;29;20039;-75
2022/01/09 01:38:19;;;;;;;3.03;1.98;;;4.30;99.90;;;;;;4934993;29;20039;-75
2022/01/09 01:40:45;;;;;;;2.60;1.90;;;4.30;99.90;;;;;;4935120;29;20109;-75
2022/01/09 01:43:11;;;;;;;4.10;1.90;;;4.30;99.90;;;;;;4935423;29;20031;-75
2022/01/09 01:45:38;;;;;;;2.50;1.73;;;4.30;99.90;;;;;;4935248;29;20477;-75
2022/01/09 01:48:09;;;;;;;1.40;1.00;;;4.30;99.90;;;;;;4918207;29;20401;-75
2022/01/09 01:50:39;;;;;;;;;;;4.40;99.90;;;;;;4935427;29;20374;-75
2022/01/09 01:53:09;;;;;;;3.33;1.83;;;4.40;99.90;;;;;;4918069;29;19911;-75
2022/01/09 01:55:37;;;;;;;2.03;1.52;;;4.30;99.90;;;;;;4934938;29;20042;-74
2022/01/09 01:58:10;;;;;;;1.92;1.52;;;4.40;99.90;;;;;;4935049;29;20032;-75
2022/01/09 02:00:38;;;;;;;1.98;1.80;;;4.40;99.90;;;;;;4934521;29;20036;-75
2022/01/09 02:03:04;;;;;;;4.32;2.15;;;4.40;99.90;;;;;;4934986;29;20386;-75
2022/01/09 02:05:30;;;;;;;3.75;2.58;;;4.40;99.90;;;;;;4934327;29;20047;-76
2022/01/09 02:07:58;;;;;;;3.63;1.92;;;4.50;99.90;;;;;;4935249;29;20051;-75
2022/01/09 02:10:24;;;;;;;2.85;2.55;;;4.50;99.90;;;;;;4935141;29;20033;-75
2022/01/09 02:12:53;;;;;;;2.72;2.20;;;4.50;99.90;;;;;;4934409;29;20036;-76
2022/01/09 02:15:38;;;;;;;2.40;1.60;;;4.60;99.90;;;;;;4934936;29;20389;-76
2022/01/09 02:18:07;;;;;;;2.03;1.70;;;4.60;99.90;;;;;;4934862;29;20044;-75
2022/01/09 02:20:34;;;;;;;1.50;1.02;;;4.70;99.90;;;;;;4934262;29;20477;-75
2022/01/09 02:23:01;;;;;;;3.03;0.77;;;4.70;99.90;;;;;;4934707;29;20039;-74
2022/01/09 02:25:28;;;;;;;0.98;0.73;;;4.80;99.90;;;;;;4934819;29;20055;-73
2022/01/09 02:27:54;;;;;;;1.60;0.85;;;4.80;99.90;;;;;;4934215;29;20397;-75
2022/01/09 02:30:21;;;;;;;0.95;0.68;;;4.90;99.90;;;;;;4934999;29;20038;-74
2022/01/09 02:32:47;;;;;;;0.60;0.50;;;4.90;99.90;;;;;;4934248;29;20032;-75
2022/01/09 02:35:14;;;;;;;0.60;0.40;;;5.00;99.90;;;;;;4934672;29;20036;-74
2022/01/09 02:37:40;;;;;;;0.40;0.40;;;5.00;99.90;;;;;;4934472;29;20040;-74
2022/01/09 02:40:07;;;;;;;0.52;0.52;;;5.00;99.90;;;;;;4934659;29;20048;-73
2022/01/09 02:42:34;;;;;;;0.85;0.45;;;5.10;99.90;;;;;;4933964;29;20512;-74
2022/01/09 02:45:00;;;;;;;0.47;0.30;;;5.10;99.90;;;;;;4934209;29;20055;-73
2022/01/09 02:47:32;;;;;;;0.50;0.40;;;5.10;99.90;;;;;;4935822;29;20047;-74
2022/01/09 02:50:09;;;;;;;0.45;0.20;;;5.20;99.90;;;;;;4935858;29;20046;-75
2022/01/09 02:52:48;;;;;;;0.45;0.40;;;5.20;99.90;;;;;;4934636;29;20044;-74
2022/01/09 02:55:15;;;;;;;0.30;0.20;;;5.20;99.90;;;;;;4935392;29;20043;-73
2022/01/09 02:57:43;;;;;;;0.47;0.30;;;5.20;99.90;;;;;;4934684;29;20035;-73
2022/01/09 03:00:18;;;;;;;0.40;0.25;;;5.30;99.90;;;;;;4934972;29;20042;-73
2022/01/09 03:02:44;;;;;;;0.30;0.20;;;5.30;99.90;;;;;;4934853;29;20043;-73
2022/01/09 03:05:11;;;;;;;0.85;0.30;;;5.30;99.90;;;;;;4935445;29;20039;-73
2022/01/09 03:07:39;;;;;;;0.43;0.40;;;5.30;99.90;;;;;;4935087;29;20047;-73
2022/01/09 03:10:07;;;;;;;0.30;0.30;;;5.30;99.90;;;;;;4935408;29;20032;-73
2022/01/09 03:12:33;;;;;;;0.30;0.30;;;5.30;99.90;;;;;;4934571;29;20042;-84
2022/01/09 03:15:00;;;;;;;0.30;0.25;;;5.30;99.90;;;;;;4934884;29;20366;-73
2022/01/09 03:17:26;;;;;;;0.32;0.25;;;5.40;99.90;;;;;;4935194;29;20024;-73
2022/01/09 03:19:53;;;;;;;0.38;0.30;;;5.40;99.90;;;;;;4934059;29;20048;-74
2022/01/09 03:22:19;;;;;;;0.52;0.22;;;5.40;99.90;;;;;;4934548;29;20047;-73
2022/01/09 03:24:46;;;;;;;1.08;0.30;;;5.40;99.90;;;;;;4934444;29;20052;-73
2022/01/09 03:27:12;;;;;;;0.45;0.30;;;5.40;99.90;;;;;;4934455;29;20040;-73
2022/01/09 03:29:39;;;;;;;0.75;0.25;;;5.40;99.90;;;;;;4934087;29;20024;-73
2022/01/09 03:32:06;;;;;;;0.63;0.30;;;5.40;99.90;;;;;;4934798;29;20047;-74
2022/01/09 03:34:33;;;;;;;0.35;0.30;;;5.50;99.90;;;;;;4934875;29;20035;-74
2022/01/09 03:37:00;;;;;;;0.75;0.50;;;5.50;99.90;;;;;;4937794;29;20040;-74
2022/01/09 03:39:26;;;;;;;1.00;0.60;;;5.50;99.90;;;;;;4920213;29;20040;-74
2022/01/09 03:41:55;;;;;;;1.00;0.60;;;5.50;99.90;;;;;;4937112;29;20458;-75
2022/01/09 03:44:21;;;;;;;2.10;0.75;;;5.50;99.90;;;;;;4920563;29;20036;-74
2022/01/09 03:46:47;;;;;;;1.25;0.85;;;5.50;99.90;;;;;;4937041;29;20047;-74
2022/01/09 03:49:13;;;;;;;1.92;0.75;;;5.50;99.90;;;;;;4937526;29;20039;-75
2022/01/09 03:51:41;;;;;;;2.50;0.60;;;5.60;99.90;;;;;;4936900;29;20056;-74
2022/01/09 03:54:07;;;;;;;0.32;0.28;;;5.70;99.90;;;;;;4937198;29;20047;-73
2022/01/09 03:56:33;;;;;;;1.27;0.30;;;5.70;99.90;;;;;;4936677;29;20048;-75
2022/01/09 03:59:00;;;;;;;1.55;0.38;;;5.80;99.90;;;;;;4936946;29;20066;-74
2022/01/09 04:01:26;;;;;;;1.55;0.60;;;5.90;99.90;;;;;;4937486;29;20392;-75
2022/01/09 04:03:53;;;;;;;0.90;0.60;;;5.90;99.90;;;;;;4936522;29;20032;-75
2022/01/09 04:06:19;;;;;;;4.63;0.60;;;6.00;99.90;;;;;;4937090;29;20040;-74
2022/01/09 04:08:47;;;;;;;0.63;0.47;;;6.10;99.90;;;;;;4936837;29;20038;-74
2022/01/09 04:11:18;;;;;;;0.38;0.20;;;6.00;99.90;;;;;;4920007;29;20023;-74
2022/01/09 04:13:45;;;;;;;2.97;0.35;;;6.00;99.90;;;;;;4936436;29;20028;-73
2022/01/09 04:16:11;;;;;;;1.20;0.25;;;6.00;99.90;;;;;;4937504;29;20373;-73
2022/01/09 04:18:37;;;;;;;0.68;0.35;;;6.00;99.90;;;;;;4930688;29;20039;-78
2022/01/09 04:21:03;;;;;;;0.60;0.60;;;6.10;99.90;;;;;;4956808;29;20031;-74
2022/01/09 04:23:29;;;;;;;1.23;0.93;;;6.10;99.90;;;;;;4939486;29;20051;-73
2022/01/09 04:25:56;;;;;;;0.60;0.45;;;6.00;99.90;;;;;;4956329;29;20046;-74
2022/01/09 04:28:22;;;;;;;0.38;0.20;;;5.90;99.90;;;;;;4955344;29;20050;-75
2022/01/09 04:30:48;;;;;;;0.98;0.40;;;5.90;99.90;;;;;;4955285;29;20042;-73
2022/01/09 04:33:15;;;;;;;4.15;0.80;;;5.80;99.90;;;;;;4955715;29;20031;-73
2022/01/09 04:35:41;;;;;;;1.63;1.27;;;5.80;99.90;;;;;;4955281;29;20035;-75
2022/01/09 04:38:08;;;;;;;4.43;1.08;;;5.80;99.90;;;;;;4955766;29;20035;-75
2022/01/09 04:40:35;;;;;;;0.50;0.50;;;5.80;99.90;;;;;;4955653;29;20034;-73
2022/01/09 04:43:03;;;;;;;3.08;1.20;;;5.70;99.90;;;;;;4955141;29;20038;-74
2022/01/09 04:45:30;;;;;;;1.90;1.05;;;5.70;99.90;;;;;;4955479;29;20070;-73
2022/01/09 04:48:04;;;;;;;1.08;0.75;;;5.60;99.90;;;;;;4953998;29;20039;-74
2022/01/09 04:50:33;;;;;;;2.13;0.88;;;5.60;99.90;;;;;;4955606;29;20043;-75
2022/01/09 04:53:05;;;;;;;1.33;0.85;;;5.50;99.90;;;;;;4954797;29;20245;-73
2022/01/09 04:55:39;;;;;;;1.80;1.08;;;5.30;99.90;;;;;;4955502;29;20039;-74
2022/01/09 04:58:05;;;;;;;1.40;1.00;;;5.20;99.90;;;;;;4955547;29;20385;-73
2022/01/09 05:00:32;;;;;;;0.95;0.80;;;5.10;99.90;;;;;;4954818;29;20129;-74
2022/01/09 05:02:58;;;;;;;0.22;0.20;;;5.00;99.90;;;;;;4954664;29;20031;-73
2022/01/09 05:05:24;;;;;;;1.20;0.68;;;4.90;99.90;;;;;;4955280;29;20031;-75
2022/01/09 05:07:50;;;;;;;0.65;0.55;;;4.90;99.90;;;;;;4954849;29;20071;-75
2022/01/09 05:10:16;;;;;;;0.20;0.10;;;4.90;99.90;;;;;;4954851;29;20047;-74
2022/01/09 05:12:43;;;;;;;0.25;0.25;;;4.80;99.90;;;;;;4954804;29;20046;-74
2022/01/09 05:15:10;;;;;;;0.32;0.32;;;4.80;99.90;;;;;;4954966;29;20397;-75
2022/01/09 05:17:36;;;;;;;0.50;0.40;;;4.90;99.90;;;;;;4954767;29;20043;-75
2022/01/09 05:20:03;;;;;;;0.93;0.68;;;4.70;99.90;;;;;;4954659;29;20036;-74
2022/01/09 05:22:30;;;;;;;1.10;0.73;;;4.70;99.90;;;;;;4954856;29;20035;-75
2022/01/09 05:25:02;;;;;;;0.57;0.17;;;4.70;99.90;;;;;;4954369;29;20031;-76
2022/01/09 05:27:29;;;;;;;2.10;1.80;;;4.80;99.90;;;;;;4954663;29;20062;-74
2022/01/09 05:29:55;;;;;;;0.25;0.20;;;4.70;99.90;;;;;;4954377;29;20031;-75
2022/01/09 05:32:22;;;;;;;0.82;0.25;;;4.70;99.90;;;;;;4954777;29;20043;-74
2022/01/09 05:34:48;;;;;;;0.30;0.20;;;4.70;99.90;;;;;;4954151;29;20038;-75
2022/01/09 05:37:14;;;;;;;0.40;0.20;;;4.70;99.90;;;;;;4954625;29;20042;-75
2022/01/09 05:39:40;;;;;;;0.28;0.28;;;4.80;99.90;;;;;;4954448;29;20035;-74
2022/01/09 05:42:08;;;;;;;0.80;0.50;;;4.80;99.90;;;;;;4954170;29;20035;-74
2022/01/09 05:44:35;;;;;;;1.27;0.90;;;4.80;99.90;;;;;;4954630;29;20440;-74
2022/01/09 05:47:01;;;;;;;1.30;1.08;;;4.80;99.90;;;;;;4953160;29;20096;-74
2022/01/09 05:49:28;;;;;;;5.70;1.40;;;4.80;99.90;;;;;;4954461;29;20031;-73
2022/01/09 05:51:54;;;;;;;1.65;0.40;;;4.80;99.90;;;;;;4954425;29;20039;-74
2022/01/09 05:54:20;;;;;;;0.90;0.57;;;4.90;99.90;;;;;;4954433;29;20062;-74
2022/01/09 05:56:47;;;;;;;1.20;0.80;;;5.00;99.90;;;;;;4954191;29;20035;-74
2022/01/09 05:59:13;;;;;;;2.22;0.90;;;5.00;99.90;;;;;;4953712;28;20043;-73
2022/01/09 06:01:39;;;;;;;2.05;1.25;;;5.00;99.90;;;;;;4954494;29;20035;-74
2022/01/09 06:04:06;;;;;;;1.05;0.65;;;5.00;99.90;;;;;;4953841;29;20040;-73
2022/01/09 06:06:32;;;;;;;0.57;0.57;;;5.00;99.90;;;;;;4954286;29;20400;-74
2022/01/09 06:08:59;;;;;;;4.03;1.30;;;5.10;99.90;;;;;;4953696;29;20042;-73
2022/01/09 06:11:25;;;;;;;2.33;1.27;;;5.10;99.90;;;;;;4954797;29;20042;-74
2022/01/09 06:13:51;;;;;;;2.05;1.23;;;5.00;99.90;;;;;;4953706;29;20036;-73
2022/01/09 06:16:18;;;;;;;2.10;1.30;;;5.00;99.90;;;;;;4954314;29;20377;-73
2022/01/09 06:18:44;;;;;;;7.88;1.65;;;5.00;99.90;;;;;;4938205;29;20039;-77
2022/01/09 06:21:10;;;;;;;4.07;1.42;;;5.00;99.90;;;;;;4955785;29;20051;-74
2022/01/09 06:23:36;;;;;;;1.58;0.80;;;5.10;99.90;;;;;;4954822;29;20046;-73
2022/01/09 06:26:02;;;;;;;5.05;1.65;;;5.20;99.90;;;;;;4953766;29;20034;-73
2022/01/09 06:28:29;;;;;;;2.30;1.45;;;5.20;99.90;;;;;;4953859;29;20031;-73
2022/01/09 06:30:55;;;;;;;2.47;1.73;;;5.20;99.90;;;;;;4953550;29;20038;-76
2022/01/09 06:33:21;;;;;;;4.13;1.90;;;5.20;99.90;;;;;;4953925;29;20449;-73
2022/01/09 06:35:48;;;;;;;5.88;2.13;;;5.20;99.90;;;;;;4935942;29;20054;-73
2022/01/09 06:38:14;;;;;;;2.40;1.50;;;5.20;99.90;;;;;;4936286;29;20058;-72
2022/01/09 06:40:40;;;;;;;7.50;2.15;;;5.30;99.90;;;;;;4953139;29;20039;-75
2022/01/09 06:43:06;;;;;;;8.32;2.58;;;5.30;99.90;;;;;;4936090;29;20043;-74
2022/01/09 06:45:33;;;;;;;5.55;3.10;;;5.20;99.90;;;;;;4953720;29;20043;-74
2022/01/09 06:47:59;;;;;;;6.32;2.72;;;5.20;99.90;;;;;;4953200;29;20043;-75
2022/01/09 06:50:27;;;;;;;4.88;2.78;;;5.30;99.90;;;;;;4953658;29;20027;-74
2022/01/09 06:52:53;;;;;;;6.10;2.53;;;5.30;99.90;;;;;;4953548;29;20035;-74
2022/01/09 06:55:20;;;;;;;4.97;2.15;;;5.40;99.90;;;;;;4953767;29;20043;-73
2022/01/09 06:57:46;;;;;;;10.38;2.33;;;5.40;99.90;;;;;;4953125;29;20051;-74
2022/01/09 07:00:13;;;;;;;8.27;3.15;;;5.40;99.90;;;;;;4936467;29;20040;-74
2022/01/09 07:02:40;;;;;;;12.40;2.45;;;5.40;99.90;;;;;;4953551;29;20062;-74
2022/01/09 07:05:06;;;;;;;14.60;2.55;;;5.40;99.90;;;;;;4953296;29;20035;-74
2022/01/09 07:07:32;;;;;;;5.20;2.30;;;5.40;99.90;;;;;;4953514;29;20493;-74
2022/01/09 07:09:59;;;;;;;7.72;2.38;;;5.40;99.90;;;;;;4954168;28;20035;-74
2022/01/09 07:12:25;;;;;;;15.68;3.17;;;5.40;99.90;;;;;;4957332;29;20488;-74
2022/01/09 07:14:51;;;;;;;5.63;3.55;;;5.50;99.90;;;;;;4957064;29;20046;-74
2022/01/09 07:17:17;;;;;;;3.67;2.17;;;5.50;99.90;;;;;;4956656;29;20047;-73
2022/01/09 07:19:43;;;;;;;5.63;2.03;;;5.50;99.90;;;;;;4957345;29;20031;-73
2022/01/09 07:22:10;;;;;;;6.07;2.00;;;5.50;99.90;;;;;;4956574;29;20475;-74
2022/01/09 07:24:36;;;;;;;6.00;2.40;;;5.40;99.90;;;;;;4939984;29;20035;-73
2022/01/09 07:27:02;;;;;;;6.07;1.60;;;5.50;99.90;;;;;;4939766;29;20076;-73
2022/01/09 07:29:28;;;;;;;3.50;1.48;;;5.50;99.90;;;;;;4937846;29;20036;-74
2022/01/09 07:31:54;;;;;;;3.15;1.52;;;5.50;99.90;;;;;;4937123;29;20032;-73
2022/01/09 07:34:21;;;;;;;3.70;1.45;;;5.60;99.90;;;;;;4937668;29;20040;-73
2022/01/09 07:36:48;;;;;;;3.25;1.63;;;5.60;99.90;;;;;;4937896;29;20062;-74
2022/01/09 07:39:14;;;;;;;5.60;1.73;;;5.50;99.90;;;;;;4937945;29;20035;-73
2022/01/09 07:41:41;;;;;;;4.13;2.20;;;5.50;99.90;;;;;;4937640;29;20051;-73
2022/01/09 07:44:08;;;;;;;3.95;2.30;;;5.50;99.90;;;;;;4936940;29;20040;-73
2022/01/09 07:46:34;;;;;;;7.22;2.25;;;5.50;99.90;;;;;;4937282;29;20032;-74
2022/01/09 07:49:01;;;;;;;3.72;1.73;;;5.60;99.90;;;;;;4920020;29;20059;-74
2022/01/09 07:51:27;;;;;;;5.28;1.90;;;5.50;99.90;;;;;;4937327;29;20047;-74
2022/01/09 07:53:53;;;;;;;3.65;2.13;;;5.50;99.90;;;;;;4937239;29;20054;-79
2022/01/09 07:56:19;;;;;;;3.13;2.05;;;5.50;99.90;;;;;;4937341;29;20110;-80
2022/01/09 07:58:46;;;;;;;3.08;1.33;;;5.50;99.90;;;;;;4937656;29;20031;-79
2022/01/09 08:01:12;;;;;;;4.30;1.73;;;5.50;99.90;;;;;;4936866;29;20417;-79
2022/01/09 08:03:38;;;;;;;3.22;1.92;;;5.40;99.90;;;;;;4937116;29;20040;-80
2022/01/09 08:06:04;;;;;;;4.97;1.77;;;5.40;99.90;;;;;;4936473;29;20044;-80
2022/01/09 08:08:30;;;;;;;3.60;1.90;;;5.40;99.90;;;;;;4937192;29;20051;-80
2022/01/09 08:10:57;;;;;;;3.60;1.95;;;5.40;99.90;;;;;;4936871;29;20034;-80
2022/01/09 08:13:23;;;;;;;4.55;2.17;;;5.30;99.90;;;;;;4937072;29;20038;-78
2022/01/09 08:15:49;;;;;;;5.90;2.60;;;5.30;99.90;;;;;;4937359;29;20051;-80
2022/01/09 08:18:15;;;;;;;3.55;2.15;;;5.30;99.90;;;;;;4936821;29;20035;-81
2022/01/09 08:20:41;;;;;;;2.83;1.98;;;5.30;99.90;;;;;;4937139;29;20036;-81
2022/01/09 08:23:08;;;;;;;2.28;1.48;;;5.30;99.90;;;;;;4940142;28;20361;-82
2022/01/09 08:25:34;;;;;;;8.82;3.20;;;5.30;99.90;;;;;;4975238;28;20491;-81
2022/01/09 08:28:00;;;;;;;3.22;1.90;;;5.30;99.90;;;;;;4974433;28;20050;-82
2022/01/09 08:30:26;;;;;;;3.90;1.80;;;5.30;99.90;;;;;;4975391;28;20464;-79
2022/01/09 08:32:53;;;;;;;6.18;2.92;;;5.30;99.90;;;;;;4975063;28;20035;-79
2022/01/09 08:35:21;;;;;;;8.38;3.58;;;5.30;99.90;;;;;;4975171;28;20034;-80
2022/01/09 08:37:48;;;;;;;5.80;3.45;;;5.30;99.90;;;;;;4975041;28;20042;-80
2022/01/09 08:40:19;;;;;;;9.73;2.85;;;5.30;99.90;;;;;;4974612;28;20050;-81
2022/01/09 08:42:46;;;;;;;3.55;2.47;;;5.30;99.90;;;;;;4975406;28;20034;-79
2022/01/09 08:45:14;;;;;;;1.75;1.20;;;5.40;99.90;;;;;;4974410;28;20422;-79
2022/01/09 08:47:41;;;;;;;5.03;3.13;;;5.40;99.90;;;;;;4975378;28;20512;-79
2022/01/09 08:50:09;;;;;;;5.43;2.58;;;5.50;99.90;;;;;;4974557;28;20039;-80
2022/01/09 08:52:35;;;;;;;5.63;2.50;;;5.50;99.90;;;;;;4975120;28;20062;-80
2022/01/09 08:55:03;;;;;;;5.18;2.53;;;5.50;99.90;;;;;;4974038;28;20046;-77
2022/01/09 08:57:29;;;;;;;9.10;2.25;;;5.50;99.90;;;;;;4974640;28;20038;-79
2022/01/09 08:59:55;;;;;;;3.03;1.70;;;5.50;99.40;;;;;;4973950;28;20031;-80
2022/01/09 09:02:21;;;;;;;11.48;1.77;;;5.50;99.40;;;;;;4974685;28;20038;-79
2022/01/09 09:04:48;;;;;;;3.10;1.65;;;5.50;99.00;;;;;;4974916;28;20405;-78
2022/01/09 09:07:18;;;;;;;5.20;2.03;;;5.50;99.00;;;;;;4973995;28;20365;-76
2022/01/09 09:09:45;;;;;;;5.15;2.03;;;5.50;98.30;;;;;;4974587;28;20046;-81
2022/01/09 09:12:11;;;;;;;3.38;2.00;;;5.60;98.60;;;;;;4974406;28;20035;-77
2022/01/09 09:14:37;;;;;;;4.40;1.88;;;5.60;97.70;;;;;;4974575;28;20031;-79
2022/01/09 09:17:04;;;;;;;7.82;2.40;;;5.60;97.00;;;;;;4956188;28;20042;-77
2022/01/09 09:19:31;;;;;;;6.30;1.92;;;5.60;96.50;;;;;;4974638;28;20043;-79
2022/01/09 09:21:57;;;;;;;1.92;1.50;;;5.60;96.00;;;;;;4973644;28;20030;-80
2022/01/09 09:24:23;;;;;;;4.78;1.92;;;5.70;96.40;;;;;;4974023;28;20034;-78
2022/01/09 09:26:49;;;;;;;9.57;2.83;;;5.70;95.60;;;;;;4957228;28;20488;-80
2022/01/09 09:29:16;;;;;;;4.25;2.17;;;5.80;95.80;;;;;;4973643;28;20764;-79
2022/01/09 09:31:42;;;;;;;5.25;1.95;;;5.80;95.80;;;;;;4957012;28;20047;-79
2022/01/09 09:34:08;;;;;;;6.68;2.50;;;5.70;94.50;;;;;;4973054;28;20037;-79
2022/01/09 09:36:35;;;;;;;5.03;2.08;;;5.80;94.70;;;;;;4974120;28;20464;-79
2022/01/09 09:39:04;;;;;;;5.88;2.47;;;5.80;95.00;;;;;;4973439;28;20468;-77
2022/01/09 09:41:31;;;;;;;9.80;3.05;;;5.80;94.50;;;;;;4974516;28;20035;-78
2022/01/09 09:43:58;;;;;;;4.65;1.90;;;5.80;94.50;;;;;;4973743;28;20042;-78
2022/01/09 09:46:25;;;;;;;4.57;3.00;;;5.90;94.50;;;;;;4941022;28;20030;-77
2022/01/09 09:48:54;;;;;;;6.05;1.85;;;5.80;93.60;;;;;;4974842;28;20050;-79
2022/01/09 09:51:28;;;;;;;6.45;2.17;;;5.90;94.50;;;;;;4973665;28;20054;-80
2022/01/09 09:53:57;;;;;;;4.15;2.17;;;5.90;94.10;;;;;;4974829;28;20039;-79
2022/01/09 09:56:23;;;;;;;7.60;2.28;;;5.90;94.30;;;;;;4975662;28;20030;-79
2022/01/09 09:58:51;;;;;;;9.82;2.25;;;5.90;93.60;;;;;;4980775;28;20038;-79
2022/01/09 10:01:30;;;;;;;4.60;1.63;;;6.00;93.80;;;;;;4985451;28;20230;-78
2022/01/09 10:03:59;;;;;;;2.85;1.48;;;5.90;93.10;;;;;;4964147;28;20043;-78
2022/01/09 10:06:43;;;;;;;3.13;1.67;;;6.00;93.00;;;;;;4954406;29;20058;-77
2022/01/09 10:09:21;;;;;;;5.03;1.95;;;6.10;92.60;;;;;;4953889;29;20039;-77
2022/01/09 10:11:47;;;;;;;9.25;2.22;;;6.10;91.80;;;;;;4949892;29;20039;-79
2022/01/09 10:14:31;;;;;;;4.97;2.00;;;6.10;92.70;;;;;;4934597;29;20031;-79
2022/01/09 10:17:08;;;;;;;3.53;1.48;;;6.10;92.60;;;;;;4935756;29;20032;-78
2022/01/09 10:19:51;;;;;;;7.57;2.28;;;6.10;92.10;;;;;;4934855;29;20035;-77
2022/01/09 10:22:36;;;;;;;7.18;1.67;;;6.10;91.80;;;;;;4934346;29;20043;-78
2022/01/09 10:25:37;;;;;;;4.93;1.90;;;6.20;91.50;;;;;;4934334;29;20055;-77
2022/01/09 10:28:08;;;;;;;10.93;2.80;;;6.20;91.20;;;;;;4917670;29;20044;-78
2022/01/09 10:30:42;;;;;;;5.95;2.40;;;6.30;90.80;;;;;;4935290;29;20469;-78
2022/01/09 10:33:12;;;;;;;3.55;1.45;;;6.30;91.50;;;;;;4917534;29;20036;-78
2022/01/09 10:35:40;;;;;;;5.20;2.67;;;6.30;91.00;;;;;;4934748;29;20035;-79
2022/01/09 10:38:24;;;;;;;5.97;2.10;;;6.30;90.70;;;;;;4934135;29;20028;-78
2022/01/09 10:41:02;;;;;;;10.77;2.58;;;6.40;90.90;;;;;;4934420;29;20049;-78
2022/01/09 10:43:31;;;;;;;3.47;1.20;;;6.50;90.60;;;;;;4934449;29;20140;-78
2022/01/09 10:46:00;;;;;;;5.82;1.88;;;6.60;90.70;;;;;;4938099;29;20051;-78
2022/01/09 10:48:34;;;;;;;5.90;2.25;;;6.70;90.40;;;;;;4938478;29;20051;-78
2022/01/09 10:51:03;;;;;;;7.97;2.38;;;6.70;90.40;;;;;;4938398;29;20397;-79
2022/01/09 10:53:36;;;;;;;5.45;1.95;;;6.70;90.50;;;;;;4938782;29;20460;-77
2022/01/09 10:56:13;;;;;;;4.13;1.45;;;6.70;90.30;;;;;;4938090;29;20353;-77
2022/01/09 10:58:42;;;;;;;6.38;2.25;;;6.70;89.70;;;;;;4938282;29;20035;-79
2022/01/09 11:01:29;;;;;;;5.47;2.03;;;6.70;90.40;;;;;;4937456;29;20031;-77
2022/01/09 11:04:06;;;;;;;5.18;1.77;;;6.80;90.00;;;;;;4938358;29;20047;-78
2022/01/09 11:06:34;;;;;;;3.75;1.50;;;6.70;88.80;;;;;;4938332;29;20512;-78
2022/01/09 11:09:04;;;;;;;5.80;2.03;;;6.60;87.90;;;;;;4937629;29;20059;-77
2022/01/09 11:11:35;;;;;;;9.15;1.80;;;6.60;88.20;;;;;;4938383;29;20045;-78
2022/01/09 11:14:05;;;;;;;3.22;1.60;;;6.70;88.00;;;;;;4937265;29;20044;-79
2022/01/09 11:16:33;;;;;;;6.85;2.28;;;6.80;87.40;;;;;;4938147;29;20061;-78
2022/01/09 11:19:22;;;;;;;9.05;2.22;;;6.90;88.20;;;;;;4938121;29;20112;-79
2022/01/09 11:22:01;;;;;;;3.85;1.70;;;7.00;87.90;;;;;;4938124;29;20039;-79
2022/01/09 11:24:52;;;;;;;4.82;1.45;;;7.00;86.60;;;;;;4938097;29;20032;-80
2022/01/09 11:27:19;;;;;;;2.80;1.38;;;7.00;86.10;;;;;;4937333;29;20362;-78
2022/01/09 11:30:09;;;;;;;2.03;1.02;;;7.10;85.20;;;;;;4937645;29;20042;-77
2022/01/09 11:33:01;;;;;;;3.03;0.95;;;7.10;84.20;;;;;;4938019;29;20040;-80
2022/01/09 11:36:05;;;;;;;2.83;1.33;;;7.10;83.70;;;;;;4937238;29;20039;-77
2022/01/09 11:38:50;;;;;;;4.03;1.67;;;7.30;83.70;;;;;;4937554;29;20035;-77
2022/01/09 11:41:24;;;;;;;3.08;1.05;;;7.40;81.00;;;;;;4937051;29;20035;-77
2022/01/09 11:44:01;;;;;;;3.25;1.45;;;7.20;79.60;;;;;;4937943;29;20039;-76
2022/01/09 11:46:31;;;;;;;4.10;1.50;;;7.20;79.70;;;;;;4919870;29;20505;-78
2022/01/09 11:49:01;;;;;;;2.83;0.88;;;7.30;79.80;;;;;;4937292;29;20047;-79
2022/01/09 11:51:35;;;;;;;3.08;1.33;;;7.40;79.90;;;;;;4936726;29;20054;-78
2022/01/09 11:54:06;;;;;;;3.83;0.95;;;7.70;78.50;;;;;;4937649;29;20039;-79
2022/01/09 11:56:42;;;;;;;2.50;1.20;;;7.90;78.80;;;;;;4937008;29;20343;-77
2022/01/09 11:59:26;;;;;;;3.38;1.02;;;8.00;78.90;;;;;;4919594;29;20051;-78
2022/01/09 12:01:54;;;;;;;1.77;0.90;;;8.20;77.90;;;;;;4937083;29;20039;-81
2022/01/09 12:04:33;;;;;;;7.88;1.10;;;8.30;78.70;;;;;;4936608;29;20039;-79
2022/01/09 12:07:04;;;;;;;3.58;0.70;;;8.40;76.50;;;;;;4937112;29;20028;-78
2022/01/09 12:09:35;;;;;;;2.28;1.05;;;8.40;75.50;;;;;;4945337;29;20054;-79
2022/01/09 12:12:05;;;;;;;1.95;0.93;;;8.20;76.80;;;;;;4944880;29;20066;-79
2022/01/09 12:17:31;;;;;;;4.30;1.17;;;8.00;75.70;;;;;;4944490;29;20042;-80
2022/01/09 12:20:13;;;;;;;4.75;1.10;;;8.10;75.70;;;;;;4945838;29;20036;-79
2022/01/09 12:22:49;;;;;;;4.65;1.35;;;8.10;74.80;;;;;;4956253;29;20031;-80
2022/01/09 12:25:24;;;;;;;3.72;2.25;;;8.00;75.00;;;;;;4955624;29;20039;-79
2022/01/09 12:28:03;;;;;;;1.30;0.80;;;7.80;74.30;;;;;;4938925;29;20039;-78
2022/01/09 12:30:41;;;;;;;3.53;1.45;;;7.60;75.80;;;;;;4955307;29;20038;-80
2022/01/09 12:33:15;;;;;;;3.40;0.95;;;7.40;76.70;;;;;;4955158;29;20042;-80
2022/01/09 12:35:49;;;;;;;4.43;1.33;;;7.30;76.20;;;;;;4955771;29;20035;-79
2022/01/09 12:38:17;;;;;;;4.60;1.85;;;7.10;75.80;;;;;;4955581;29;20046;-79
2022/01/09 12:40:44;;;;;;;4.50;1.35;;;7.10;77.50;;;;;;4955510;29;20035;-77
2022/01/09 12:43:12;;;;;;;3.88;1.77;;;7.10;77.30;;;;;;4955242;29;20039;-80
2022/01/09 12:45:43;;;;;;;2.80;1.73;;;7.10;78.20;;;;;;4955900;29;20050;-74
2022/01/09 12:48:19;;;;;;;;;;;7.10;78.70;;;;;;4955586;29;20382;-75
2022/01/09 12:50:47;;;;;;;4.03;1.58;;;7.00;77.70;;;;;;4955524;29;19925;-74
2022/01/09 12:53:29;;;;;;;3.40;1.30;;;7.00;78.30;;;;;;4951813;29;20047;-75
2022/01/09 12:56:11;;;;;;;9.07;1.65;;;7.00;78.10;;;;;;4935949;29;20039;-76
2022/01/09 12:58:47;;;;;;;4.22;2.05;;;7.10;78.70;;;;;;4936524;29;20059;-75
2022/01/09 13:01:13;;;;;;;3.47;1.63;;;7.10;77.70;;;;;;4935682;29;20035;-75
2022/01/09 13:03:43;;;;;;;2.88;1.23;;;7.20;78.30;;;;;;4936040;29;20032;-73
2022/01/09 13:06:12;;;;;;;3.35;1.40;;;7.30;77.50;;;;;;4919079;29;20027;-75
2022/01/09 13:08:45;;;;;;;4.50;1.90;;;7.50;77.30;;;;;;4934975;29;20046;-73